createdAt,value
2022-10-25T00:01:45.756Z,4.85
2022-10-25T00:04:47.568Z,4.72
2022-10-25T00:07:49.201Z,5.80
2022-10-25T00:10:50.763Z,5.45
2022-10-25T00:13:55.776Z,6.38
2022-10-25T00:16:57.380Z,6.85
2022-10-25T00:19:58.788Z,5.90
2022-10-25T00:23:00.178Z,6.20
2022-10-25T00:26:03.165Z,6.00
2022-10-25T00:29:04.566Z,5.65
2022-10-25T00:32:05.970Z,6.13
2022-10-25T00:35:07.799Z,7.22
2022-10-25T00:38:09.216Z,6.00
2022-10-25T00:41:11.584Z,5.50
2022-10-25T00:44:34.740Z,5.88
2022-10-25T00:47:57.572Z,4.80
2022-10-25T00:50:59.123Z,4.72
2022-10-25T00:54:01.354Z,4.68
2022-10-25T00:57:10.203Z,5.30
2022-10-25T01:00:12.318Z,5.63
2022-10-25T01:03:16.313Z,4.50
2022-10-25T01:06:23.128Z,4.70
2022-10-25T01:09:31.060Z,4.32
2022-10-25T01:12:32.460Z,4.00
2022-10-25T01:15:51.079Z,4.10
2022-10-25T01:19:15.871Z,4.43
2022-10-25T01:22:43.379Z,3.60
2022-10-25T01:26:14.509Z,4.10
2022-10-25T01:29:33.139Z,4.25
2022-10-25T01:33:06.528Z,3.10
2022-10-25T01:36:52.701Z,3.40
2022-10-25T01:40:23.417Z,3.90
2022-10-25T01:43:43.879Z,3.80
2022-10-25T01:46:52.938Z,3.25
2022-10-25T01:50:02.766Z,3.72
2022-10-25T01:53:04.166Z,4.28
2022-10-25T01:56:06.362Z,4.22
2022-10-25T01:59:32.074Z,4.00
2022-10-25T02:03:01.417Z,5.03
2022-10-25T02:06:32.421Z,4.70
2022-10-25T02:09:48.881Z,4.25
2022-10-25T02:13:16.507Z,4.90
2022-10-25T02:16:27.853Z,5.45
2022-10-25T02:19:44.274Z,4.72
2022-10-25T02:22:46.969Z,4.15
2022-10-25T02:25:51.331Z,4.25
2022-10-25T02:31:54.586Z,4.07
2022-10-25T02:34:56.006Z,3.90
2022-10-25T02:37:57.446Z,4.20
2022-10-25T02:41:01.624Z,4.07
2022-10-25T02:47:04.405Z,3.85
2022-10-25T02:50:06.245Z,3.50
2022-10-25T02:53:07.649Z,5.22
2022-10-25T02:56:27.329Z,3.72
2022-10-25T02:59:28.748Z,4.10
2022-10-25T03:02:30.169Z,3.97
2022-10-25T03:05:31.612Z,4.50
2022-10-25T03:08:33.257Z,4.85
2022-10-25T03:11:34.677Z,4.45
2022-10-25T03:14:36.091Z,4.97
2022-10-25T03:17:37.483Z,4.80
2022-10-25T03:20:39.631Z,4.88
2022-10-25T03:23:41.037Z,5.03
2022-10-25T03:26:42.444Z,5.32
2022-10-25T03:29:43.917Z,4.57
2022-10-25T03:32:45.321Z,4.15
2022-10-25T03:35:50.154Z,3.90
2022-10-25T03:38:51.545Z,4.35
2022-10-25T03:41:52.965Z,4.28
2022-10-25T03:44:54.350Z,4.07
2022-10-25T03:47:55.837Z,3.65
2022-10-25T03:50:57.278Z,4.70
2022-10-25T03:53:58.681Z,3.92
2022-10-25T03:57:00.775Z,4.90
2022-10-25T04:00:03.431Z,4.60
2022-10-25T04:03:13.085Z,3.80
2022-10-25T04:06:14.528Z,5.38
2022-10-25T04:09:15.957Z,4.60
2022-10-25T04:12:17.365Z,6.47
2022-10-25T04:15:19.519Z,5.90
2022-10-25T04:18:20.963Z,5.90
2022-10-25T04:21:22.939Z,6.05
2022-10-25T04:24:24.366Z,6.13
2022-10-25T04:27:25.926Z,6.13
2022-10-25T04:30:27.459Z,6.95
2022-10-25T04:33:28.869Z,7.68
2022-10-25T04:36:30.852Z,8.70
2022-10-25T04:39:32.250Z,8.68
2022-10-25T04:42:34.403Z,9.43
2022-10-25T04:45:36.448Z,9.80
2022-10-25T04:48:38.744Z,9.38
2022-10-25T04:51:40.901Z,9.30
2022-10-25T04:54:42.335Z,9.52
2022-10-25T04:57:43.800Z,10.30
2022-10-25T05:00:47.037Z,9.55
2022-10-25T05:03:48.456Z,9.47
2022-10-25T05:06:49.881Z,8.93
2022-10-25T05:09:51.324Z,8.43
2022-10-25T05:12:54.353Z,8.52
2022-10-25T05:15:59.014Z,8.48
2022-10-25T05:19:01.182Z,7.90
2022-10-25T05:22:02.632Z,7.53
2022-10-25T05:25:04.631Z,7.00
2022-10-25T05:28:06.056Z,7.25
2022-10-25T05:31:08.242Z,8.10
2022-10-25T05:34:10.245Z,7.35
2022-10-25T05:37:11.696Z,6.68
2022-10-25T05:40:13.101Z,7.53
2022-10-25T05:43:14.527Z,8.27
2022-10-25T05:46:18.487Z,7.80
2022-10-25T05:49:20.030Z,7.82
2022-10-25T05:52:21.508Z,7.90
2022-10-25T05:55:22.962Z,8.55
2022-10-25T05:58:24.441Z,8.60
2022-10-25T06:01:26.768Z,8.95
2022-10-25T06:04:28.544Z,8.18
2022-10-25T06:07:29.950Z,8.02
2022-10-25T06:10:31.882Z,9.70
2022-10-25T06:13:33.640Z,10.68
2022-10-25T06:16:37.120Z,11.88
2022-10-25T06:19:38.530Z,10.73
2022-10-25T06:22:39.932Z,11.10
2022-10-25T06:25:41.379Z,13.25
2022-10-25T06:28:43.535Z,12.77
2022-10-25T06:31:44.942Z,11.90
2022-10-25T06:34:46.359Z,11.95
2022-10-25T06:37:47.768Z,13.35
2022-10-25T06:40:49.273Z,12.48
2022-10-25T06:43:51.247Z,12.48
2022-10-25T06:47:15.828Z,12.27
2022-10-25T06:50:14.207Z,12.40
2022-10-25T06:53:15.978Z,13.10
2022-10-25T06:56:17.427Z,12.75
2022-10-25T06:59:18.880Z,13.70
2022-10-25T07:02:20.367Z,14.20
2022-10-25T07:05:22.280Z,14.02
2022-10-25T07:08:23.680Z,13.43
2022-10-25T07:11:26.514Z,14.05
2022-10-25T07:14:27.922Z,12.85
2022-10-25T07:17:29.344Z,13.18
2022-10-25T07:20:30.756Z,12.15
2022-10-25T07:23:32.464Z,12.63
2022-10-25T07:26:34.516Z,11.27
2022-10-25T07:29:35.933Z,12.25
2022-10-25T07:32:41.489Z,10.68
2022-10-25T07:35:59.083Z,10.68
2022-10-25T07:39:07.972Z,9.85
2022-10-25T07:42:09.394Z,10.52
2022-10-25T07:45:10.860Z,12.10
2022-10-25T07:48:12.264Z,10.48
2022-10-25T07:51:15.934Z,11.38
2022-10-25T07:54:17.397Z,11.90
2022-10-25T07:57:18.800Z,10.70
2022-10-25T08:00:20.379Z,10.55
2022-10-25T08:03:21.861Z,9.20
2022-10-25T08:06:24.852Z,7.47
2022-10-25T08:09:37.668Z,8.68
2022-10-25T08:12:39.888Z,8.82
2022-10-25T08:15:41.341Z,8.40
2022-10-25T08:18:43.250Z,8.20
2022-10-25T08:21:44.644Z,8.25
2022-10-25T08:24:46.028Z,8.68
2022-10-25T08:27:47.859Z,8.82
2022-10-25T08:30:49.512Z,8.82
2022-10-25T08:33:50.935Z,9.25
2022-10-25T08:36:52.339Z,9.25
2022-10-25T08:39:55.667Z,10.60
2022-10-25T08:43:00.958Z,9.80
2022-10-25T08:46:32.914Z,9.50
2022-10-25T08:49:55.627Z,9.00
2022-10-25T08:53:01.075Z,9.57
2022-10-25T08:56:16.241Z,8.88
2022-10-25T08:59:27.220Z,9.68
2022-10-25T09:02:50.208Z,10.38
2022-10-25T09:06:02.319Z,10.18
2022-10-25T09:09:25.116Z,9.65
2022-10-25T09:12:47.399Z,11.27
2022-10-25T09:16:01.497Z,10.05
2022-10-25T09:19:08.311Z,9.63
2022-10-25T09:22:31.304Z,10.38
2022-10-25T09:25:55.026Z,9.30
2022-10-25T09:29:07.036Z,10.00
2022-10-25T09:32:25.471Z,9.18
2022-10-25T09:35:32.616Z,8.60
2022-10-25T09:38:50.423Z,9.10
2022-10-25T09:41:54.335Z,9.25
2022-10-25T09:45:01.801Z,9.55
2022-10-25T09:48:10.741Z,9.07
2022-10-25T09:51:29.679Z,8.85
2022-10-25T09:54:38.522Z,9.75
2022-10-25T09:57:40.160Z,9.25
2022-10-25T10:00:42.699Z,9.40
2022-10-25T10:03:46.696Z,9.05
2022-10-25T10:06:56.688Z,8.02
2022-10-25T10:10:02.604Z,8.48
2022-10-25T10:13:22.816Z,7.72
2022-10-25T10:16:28.928Z,7.97
2022-10-25T10:19:30.516Z,7.80
2022-10-25T10:22:32.013Z,7.97
2022-10-25T10:25:33.469Z,7.38
2022-10-25T10:28:35.834Z,6.93
2022-10-25T10:31:49.873Z,6.88
2022-10-25T10:34:54.092Z,6.85
2022-10-25T10:38:26.196Z,7.00
2022-10-25T10:41:29.156Z,6.60
2022-10-25T10:44:34.423Z,5.68
2022-10-25T10:47:50.952Z,5.70
2022-10-25T10:50:52.404Z,4.82
2022-10-25T10:53:54.630Z,4.53
2022-10-25T10:56:59.519Z,4.30
2022-10-25T11:00:01.849Z,4.30
2022-10-25T11:03:03.390Z,4.00
2022-10-25T11:06:14.106Z,4.13
2022-10-25T11:09:22.621Z,3.90
2022-10-25T11:12:24.049Z,3.50
2022-10-25T11:15:25.591Z,3.20
2022-10-25T11:18:45.341Z,3.08
2022-10-25T11:22:24.651Z,3.45
2022-10-25T11:25:50.025Z,2.97
2022-10-25T11:29:02.332Z,3.20
2022-10-25T11:32:22.629Z,3.38
2022-10-25T11:35:57.965Z,3.33
2022-10-25T11:39:26.178Z,3.67
2022-10-25T11:42:46.292Z,3.40
2022-10-25T11:46:10.485Z,3.28
2022-10-25T11:49:30.036Z,3.17
2022-10-25T11:52:57.574Z,3.47
2022-10-25T11:56:07.004Z,2.85
2022-10-25T11:59:27.171Z,3.45
2022-10-25T12:02:56.355Z,3.22
2022-10-25T12:06:08.726Z,2.72
2022-10-25T12:09:33.356Z,3.17
2022-10-25T12:12:44.930Z,2.40
2022-10-25T12:15:52.562Z,3.13
2022-10-25T12:19:07.799Z,2.83
2022-10-25T12:22:16.545Z,2.60
2022-10-25T12:25:24.445Z,2.72
2022-10-25T12:28:32.165Z,3.28
2022-10-25T12:31:42.759Z,2.97
2022-10-25T12:34:57.437Z,2.67
2022-10-25T12:38:04.774Z,2.83
2022-10-25T12:41:19.361Z,2.63
2022-10-25T12:44:39.311Z,2.85
2022-10-25T12:48:08.360Z,3.03
2022-10-25T12:51:19.477Z,2.35
2022-10-25T12:54:26.804Z,2.20
2022-10-25T12:57:47.483Z,2.50
2022-10-25T13:01:11.275Z,2.13
2022-10-25T13:04:36.702Z,2.83
2022-10-25T13:07:38.789Z,2.10
2022-10-25T13:10:43.830Z,2.10
2022-10-25T13:13:53.021Z,2.08
2022-10-25T13:17:16.007Z,1.98
2022-10-25T13:20:40.181Z,1.83
2022-10-25T13:23:44.660Z,2.10
2022-10-25T13:27:15.331Z,3.00
2022-10-25T13:30:25.917Z,1.80
2022-10-25T13:33:29.342Z,2.40
2022-10-25T13:36:51.246Z,2.35
2022-10-25T13:39:53.618Z,2.60
2022-10-25T13:43:19.865Z,2.20
2022-10-25T13:46:29.192Z,2.28
2022-10-25T13:49:37.929Z,1.95
2022-10-25T13:53:03.016Z,2.38
2022-10-25T13:56:34.215Z,2.28
2022-10-25T13:59:57.012Z,2.67
2022-10-25T14:03:43.232Z,2.00
2022-10-25T14:06:44.720Z,1.95
2022-10-25T14:09:50.441Z,1.60
2022-10-25T14:12:57.049Z,2.17
2022-10-25T14:16:02.940Z,1.63
2022-10-25T14:19:21.652Z,2.53
2022-10-25T14:22:43.084Z,2.45
2022-10-25T14:25:55.122Z,2.83
2022-10-25T14:29:12.966Z,2.03
2022-10-25T14:32:14.415Z,2.42
2022-10-25T14:35:16.004Z,2.45
2022-10-25T14:38:22.620Z,2.35
2022-10-25T14:41:32.495Z,2.50
2022-10-25T14:44:48.527Z,2.70
2022-10-25T14:47:50.290Z,2.20
2022-10-25T14:50:53.273Z,2.63
2022-10-25T14:53:59.183Z,2.75
2022-10-25T14:57:04.484Z,2.78
2022-10-25T15:00:06.413Z,2.85
2022-10-25T15:03:10.281Z,3.08
2022-10-25T15:06:15.795Z,3.20
2022-10-25T15:12:50.835Z,3.60
2022-10-25T15:15:52.392Z,3.95
2022-10-25T15:19:18.233Z,3.00
2022-10-25T15:22:20.567Z,3.28
2022-10-25T15:25:21.965Z,3.10
2022-10-25T15:28:23.432Z,2.97
2022-10-25T15:31:27.839Z,3.28
2022-10-25T15:34:29.408Z,3.00
2022-10-25T15:37:30.840Z,3.25
2022-10-25T15:40:32.294Z,3.38
2022-10-25T15:43:33.732Z,3.45
2022-10-25T15:46:35.240Z,3.75
2022-10-25T15:49:36.632Z,4.32
2022-10-25T15:52:38.030Z,3.78
2022-10-25T15:55:39.481Z,3.95
2022-10-25T15:58:40.894Z,4.28
2022-10-25T16:01:45.564Z,4.88
2022-10-25T16:04:47.572Z,4.90
2022-10-25T16:07:50.363Z,8.18
2022-10-25T16:10:51.986Z,5.55
2022-10-25T16:13:53.590Z,6.72
2022-10-25T16:16:55.219Z,5.53
2022-10-25T16:19:56.718Z,5.70
2022-10-25T16:22:58.285Z,5.43
2022-10-25T16:25:59.761Z,5.28
2022-10-25T16:29:01.169Z,5.18
2022-10-25T16:32:02.883Z,5.80
2022-10-25T16:35:04.878Z,6.22
2022-10-25T16:38:06.369Z,5.70
2022-10-25T16:41:22.658Z,5.47
2022-10-25T16:44:24.095Z,4.93
2022-10-25T16:47:25.745Z,5.25
2022-10-25T16:50:28.837Z,5.10
2022-10-25T16:53:30.237Z,5.10
2022-10-25T16:56:31.785Z,5.30
2022-10-25T16:59:33.287Z,6.07
2022-10-25T17:02:34.722Z,6.20
2022-10-25T17:05:36.619Z,6.20
2022-10-25T17:08:38.219Z,6.18
2022-10-25T17:11:39.781Z,6.72
2022-10-25T17:14:41.253Z,6.03
2022-10-25T17:17:42.903Z,6.07
2022-10-25T17:20:44.389Z,5.88
2022-10-25T17:23:45.786Z,7.68
2022-10-25T17:26:47.194Z,8.10
2022-10-25T17:29:48.867Z,7.95
2022-10-25T17:32:50.362Z,7.28
2022-10-25T17:35:52.174Z,8.30
2022-10-25T17:38:53.566Z,9.00
2022-10-25T17:41:54.984Z,8.32
2022-10-25T17:44:56.445Z,8.90
2022-10-25T17:47:58.085Z,8.48
2022-10-25T17:51:04.936Z,8.90
2022-10-25T17:54:06.529Z,11.50
2022-10-25T17:57:07.955Z,11.30
2022-10-25T18:00:10.430Z,11.48
2022-10-25T18:03:14.866Z,13.40
2022-10-25T18:06:19.605Z,13.55
2022-10-25T18:09:21.148Z,13.43
2022-10-25T18:12:22.574Z,14.75
2022-10-25T18:15:23.988Z,14.23
2022-10-25T18:18:25.424Z,14.85
2022-10-25T18:21:27.136Z,13.98
2022-10-25T18:24:28.549Z,14.60
2022-10-25T18:27:30.509Z,13.90
2022-10-25T18:30:33.644Z,12.90
2022-10-25T18:33:37.155Z,13.95
2022-10-25T18:36:38.638Z,12.18
2022-10-25T18:39:40.112Z,11.25
2022-10-25T18:42:41.569Z,12.30
2022-10-25T18:45:42.962Z,12.18
2022-10-25T18:48:44.406Z,11.48
2022-10-25T18:51:45.817Z,11.07
2022-10-25T18:54:47.190Z,10.32
2022-10-25T18:57:48.927Z,10.38
2022-10-25T19:00:50.595Z,11.98
2022-10-25T19:03:52.150Z,12.68
2022-10-25T19:06:53.634Z,13.57
2022-10-25T19:09:55.073Z,14.18
2022-10-25T19:12:56.443Z,13.23
2022-10-25T19:15:58.367Z,11.95
2022-10-25T19:19:04.154Z,11.85
2022-10-25T19:22:05.612Z,12.18
2022-10-25T19:25:07.241Z,12.77
2022-10-25T19:28:09.150Z,11.48
2022-10-25T19:31:13.191Z,11.43
2022-10-25T19:34:15.045Z,11.48
2022-10-25T19:37:16.464Z,12.75
2022-10-25T19:40:17.883Z,11.75
2022-10-25T19:43:19.319Z,12.48
2022-10-25T19:46:20.758Z,12.50
2022-10-25T19:49:22.168Z,13.18
2022-10-25T19:52:23.623Z,13.13
2022-10-25T19:55:25.020Z,13.65
2022-10-25T19:58:27.089Z,13.75
2022-10-25T20:01:28.609Z,13.55
2022-10-25T20:04:30.101Z,13.57
2022-10-25T20:07:31.492Z,14.52
2022-10-25T20:10:32.893Z,14.40
2022-10-25T20:13:34.808Z,14.40
2022-10-25T20:16:36.468Z,15.10
2022-10-25T20:19:37.872Z,13.02
2022-10-25T20:22:39.257Z,12.75
2022-10-25T20:25:40.717Z,13.80
2022-10-25T20:28:42.559Z,13.45
2022-10-25T20:31:44.442Z,14.52
2022-10-25T20:34:45.846Z,14.57
2022-10-25T20:37:47.551Z,14.45
2022-10-25T20:40:49.278Z,15.10
2022-10-25T20:43:53.126Z,14.90
2022-10-25T20:46:54.610Z,14.40
2022-10-25T20:49:56.021Z,15.85
2022-10-25T20:53:12.856Z,14.15
2022-10-25T20:56:18.165Z,14.32
2022-10-25T20:59:19.578Z,14.30
2022-10-25T21:02:21.120Z,14.10
2022-10-25T21:05:22.603Z,13.35
2022-10-25T21:08:24.825Z,12.90
2022-10-25T21:11:26.291Z,14.18
2022-10-25T21:14:27.765Z,13.73
2022-10-25T21:17:29.191Z,13.23
2022-10-25T21:20:30.601Z,13.85
2022-10-25T21:23:32.170Z,13.18
2022-10-25T21:26:33.585Z,13.63
2022-10-25T21:29:35.059Z,13.82
2022-10-25T21:32:36.471Z,13.50
2022-10-25T21:35:37.863Z,12.57
2022-10-25T21:38:40.244Z,12.40
2022-10-25T21:41:41.621Z,12.90
2022-10-25T21:44:43.047Z,12.70
2022-10-25T21:47:44.427Z,13.82
2022-10-25T21:50:53.446Z,14.32
2022-10-25T21:53:55.377Z,14.20
2022-10-25T21:56:57.158Z,15.05
2022-10-25T21:59:58.571Z,14.48
2022-10-25T22:02:59.941Z,15.40
2022-10-25T22:06:02.009Z,13.02
2022-10-25T22:09:03.929Z,13.50
2022-10-25T22:12:05.537Z,12.88
2022-10-25T22:15:07.044Z,13.48
2022-10-25T22:18:08.425Z,14.20
2022-10-25T22:21:12.081Z,13.25
2022-10-25T22:24:13.535Z,14.80
2022-10-25T22:27:14.970Z,14.73
2022-10-25T22:30:16.419Z,13.20
2022-10-25T22:33:17.800Z,13.60
2022-10-25T22:36:20.581Z,14.75
2022-10-25T22:39:21.965Z,13.52
2022-10-25T22:42:24.545Z,15.55
2022-10-25T22:45:25.945Z,14.98
2022-10-25T22:48:35.634Z,14.20
2022-10-25T22:51:37.889Z,13.90
2022-10-25T22:54:39.287Z,13.95
2022-10-25T22:57:40.682Z,14.82
2022-10-25T23:00:42.075Z,14.23
2022-10-25T23:03:45.889Z,13.93
2022-10-25T23:06:47.341Z,15.10
2022-10-25T23:09:48.748Z,13.60
2022-10-25T23:12:50.470Z,14.63
2022-10-25T23:15:52.199Z,13.70
2022-10-25T23:18:53.938Z,14.05
2022-10-25T23:21:55.356Z,13.50
2022-10-25T23:24:56.729Z,14.15
2022-10-25T23:27:58.504Z,14.50
2022-10-25T23:31:07.933Z,14.95
2022-10-25T23:34:10.190Z,16.02
2022-10-25T23:37:11.608Z,15.13
2022-10-25T23:40:13.068Z,14.60
2022-10-25T23:43:14.490Z,15.63
2022-10-25T23:46:16.119Z,14.27
2022-10-25T23:49:17.529Z,14.00
2022-10-25T23:52:18.937Z,13.45
2022-10-25T23:55:20.370Z,12.98
2022-10-25T23:58:22.785Z,13.13
